Time;durP1;ratioP1;P1;durP2;ratioP2;P2;SDS_P1;SDS_P2;PMS_P1;PMS_P2;Temp;Humidity;BMP_temperature;BMP_pressure;BME280_temperature;BME280_humidity;BME280_pressure;Samples;Min_cycle;Max_cycle;Signal;HPM_P1;HPM_P2
2022/04/19 00:01:00;;;;;;;13.60;6.60;;;;;;;-0.41;63.17;100768.48;107544;1250;71801;-68
2022/04/19 00:03:29;;;;;;;12.50;6.40;;;;;;;-0.42;63.78;100766.27;107730;1250;59019;-72
2022/04/19 00:05:58;;;;;;;11.50;5.60;;;;;;;-0.34;63.41;100765.73;107481;1250;61229;-70
2022/04/19 00:08:27;;;;;;;8.40;5.30;;;;;;;-0.30;62.74;100764.73;107514;1250;71305;-67
2022/04/19 00:10:56;;;;;;;10.20;5.40;;;;;;;-0.21;62.93;100767.23;107458;1251;72626;-68
2022/04/19 00:13:25;;;;;;;10.50;6.10;;;;;;;-0.19;62.83;100762.56;107462;1251;68398;-68
2022/04/19 00:15:55;;;;;;;9.70;5.80;;;;;;;-0.18;63.06;100759.98;107414;1249;71147;-67
2022/04/19 00:18:30;;;;;;;12.70;6.50;;;;;;;-0.20;62.67;100764.83;107728;1250;60803;-68
2022/04/19 00:20:59;;;;;;;12.20;6.30;;;;;;;-0.13;62.85;100768.76;107862;1250;60350;-67
2022/04/19 00:23:28;;;;;;;12.30;6.30;;;;;;;-0.14;63.21;100767.42;107950;1250;71326;-69
2022/04/19 00:25:57;;;;;;;16.90;6.50;;;;;;;-0.15;63.98;100771.39;107366;1250;70388;-69
2022/04/19 00:28:27;;;;;;;11.20;5.60;;;;;;;-0.27;64.74;100761.08;107343;1251;69788;-69
2022/04/19 00:30:57;;;;;;;11.90;6.70;;;;;;;-0.24;64.20;100763.91;107235;1251;72256;-66
2022/04/19 00:33:27;;;;;;;11.00;7.00;;;;;;;-0.25;64.23;100760.70;107505;1250;59559;-70
2022/04/19 00:35:56;;;;;;;12.10;7.60;;;;;;;-0.29;63.84;100765.92;107388;1251;59079;-67
2022/04/19 00:38:25;;;;;;;16.10;7.90;;;;;;;-0.34;63.76;100765.02;107323;1251;74160;-70
2022/04/19 00:40:53;;;;;;;13.40;7.50;;;;;;;-0.40;63.59;100765.52;107514;1250;72928;-69
2022/04/19 00:43:23;;;;;;;9.70;6.40;;;;;;;-0.45;63.84;100760.70;107547;1248;71355;-67
2022/04/19 00:45:52;;;;;;;11.90;6.70;;;;;;;-0.46;64.55;100759.02;107560;1250;72537;-66
2022/04/19 00:48:21;;;;;;;10.10;5.90;;;;;;;-0.49;64.48;100755.17;107174;1254;61365;-68
2022/04/19 00:50:51;;;;;;;14.90;6.50;;;;;;;-0.54;64.87;100756.83;107353;1251;60303;-65
2022/04/19 00:53:24;;;;;;;12.60;6.40;;;;;;;-0.58;65.20;100754.70;107179;1251;71734;-65
2022/04/19 00:55:59;;;;;;;12.00;6.60;;;;;;;-0.61;65.38;100752.74;107154;1251;70687;-67
2022/04/19 00:58:29;;;;;;;12.90;6.90;;;;;;;-0.62;65.37;100752.25;107316;1251;67159;-66
2022/04/19 01:01:00;;;;;;;11.20;7.30;;;;;;;-0.64;65.52;100753.65;107216;1251;74863;-68
2022/04/19 01:03:29;;;;;;;16.30;8.00;;;;;;;-0.68;65.61;100754.45;107124;1253;60208;-67
2022/04/19 01:06:00;;;;;;;16.00;7.60;;;;;;;-0.71;65.81;100754.35;107322;1251;59214;-65
2022/04/19 01:08:30;;;;;;;11.60;7.40;;;;;;;-0.82;66.29;100752.73;107392;1251;70854;-66
2022/04/19 01:14:02;;;;;;;10.60;6.70;;;;;;;-0.94;64.49;100752.53;107807;1251;67971;-71
2022/04/19 01:16:34;;;;;;;12.90;7.30;;;;;;;-1.10;64.05;100751.52;107364;1252;74253;-67
2022/04/19 01:19:09;;;;;;;11.90;6.90;;;;;;;-1.21;63.70;100752.49;107225;1252;59204;-68
2022/04/19 01:21:57;;;;;;;11.80;7.50;;;;;;;-1.29;64.70;100752.34;107359;1251;61142;-70
2022/04/19 01:24:43;;;;;;;14.90;6.80;;;;;;;-1.36;64.40;100756.42;107149;1251;72954;-69
2022/04/19 01:27:16;;;;;;;15.60;7.30;;;;;;;-1.37;65.02;100758.30;106991;1251;72831;-66
2022/04/19 01:29:48;;;;;;;13.20;6.70;;;;;;;-1.38;66.46;100753.89;107033;1253;69347;-66
2022/04/19 01:32:17;;;;;;;11.90;6.80;;;;;;;-1.39;66.45;100752.55;107002;1251;73924;-69
2022/04/19 01:34:46;;;;;;;11.10;6.60;;;;;;;-1.38;66.54;100752.35;107156;1253;58904;-67
2022/04/19 01:37:20;;;;;;;10.20;6.30;;;;;;;-1.39;66.50;100748.61;107416;1248;58988;-67
2022/04/19 01:42:37;;;;;;;15.60;7.10;;;;;;;-1.44;66.30;100750.27;107303;1251;73991;-67
2022/04/19 01:45:07;;;;;;;17.10;11.20;;;;;;;-1.47;66.47;100748.80;107073;1252;69255;-71
2022/04/19 01:47:39;;;;;;;13.10;7.40;;;;;;;-1.51;67.08;100748.73;107132;1252;73344;-63
2022/04/19 01:50:12;;;;;;;10.30;6.60;;;;;;;-1.49;67.75;100747.31;107156;1251;62802;-65
2022/04/19 01:52:42;;;;;;;11.90;7.00;;;;;;;-1.48;67.83;100747.78;107184;1251;61850;-64
2022/04/19 01:55:15;;;;;;;12.30;6.70;;;;;;;-1.46;67.75;100746.40;106888;1251;73508;-65
2022/04/19 01:57:49;;;;;;;11.40;7.40;;;;;;;-1.48;67.29;100748.83;106943;1254;70272;-65
2022/04/19 02:00:19;;;;;;;11.40;7.20;;;;;;;-1.52;67.63;100745.31;106946;1254;69452;-63
2022/04/19 02:02:48;;;;;;;11.40;6.10;;;;;;;-1.55;68.10;100746.23;107096;1253;72047;-63
2022/04/19 02:05:21;;;;;;;10.90;6.40;;;;;;;-1.54;67.99;100745.37;106900;1254;59821;-67
2022/04/19 02:07:50;;;;;;;11.90;5.90;;;;;;;-1.58;68.09;100746.98;106943;1253;61805;-66
2022/04/19 02:10:20;;;;;;;9.80;6.70;;;;;;;-1.58;68.14;100746.65;107406;1254;72219;-72
2022/04/19 02:12:52;;;;;;;12.30;6.90;;;;;;;-1.65;66.74;100748.85;107107;1253;70720;-67
2022/04/19 02:15:33;;;;;;;11.30;7.20;;;;;;;-1.78;66.99;100751.17;107363;1253;69730;-68
2022/04/19 02:18:14;;;;;;;10.90;7.20;;;;;;;-1.86;68.09;100750.48;107205;1254;73774;-69
2022/04/19 02:20:45;;;;;;;12.30;6.90;;;;;;;-1.90;68.62;100750.40;107360;1253;61050;-68
2022/04/19 02:23:13;;;;;;;11.70;6.90;;;;;;;-1.91;68.03;100747.34;107150;1254;61198;-68
2022/04/19 02:25:42;;;;;;;15.80;6.90;;;;;;;-1.95;67.09;100748.27;107093;1254;74485;-65
2022/04/19 02:28:13;;;;;;;14.80;7.20;;;;;;;-1.97;67.13;100750.54;107009;1254;72091;-68
2022/04/19 02:30:46;;;;;;;11.40;8.30;;;;;;;-2.01;68.24;100750.95;107045;1253;67838;-68
2022/04/19 02:33:20;;;;;;;11.30;7.00;;;;;;;-2.02;68.12;100750.63;107097;1253;70482;-68
2022/04/19 02:35:49;;;;;;;12.90;7.20;;;;;;;-2.10;66.82;100746.54;107105;1254;58968;-66
2022/04/19 02:38:18;;;;;;;15.80;8.40;;;;;;;-2.20;67.46;100748.27;107078;1254;59877;-66
2022/04/19 02:40:48;;;;;;;13.50;7.40;;;;;;;-2.26;67.22;100749.40;107081;1254;71174;-70
2022/04/19 02:43:17;;;;;;;10.80;7.40;;;;;;;-2.31;68.25;100751.72;107070;1254;69589;-66
2022/04/19 02:45:47;;;;;;;15.90;7.60;;;;;;;-2.37;69.81;100752.34;107242;1254;67995;-69
2022/04/19 02:48:23;;;;;;;14.70;7.50;;;;;;;-2.33;69.82;100754.65;106951;1254;72957;-67
2022/04/19 02:50:54;;;;;;;14.20;7.70;;;;;;;-2.28;69.86;100756.77;107141;1254;60871;-66
2022/04/19 02:53:23;;;;;;;14.90;7.60;;;;;;;-2.23;69.78;100759.06;107226;1251;62253;-67
2022/04/19 02:55:52;;;;;;;11.40;7.00;;;;;;;-2.21;69.85;100757.33;107268;1251;75233;-67
2022/04/19 02:58:21;;;;;;;12.30;7.40;;;;;;;-2.16;69.88;100756.38;107283;1251;72056;-69
2022/04/19 03:00:50;;;;;;;14.30;7.60;;;;;;;-2.14;69.34;100759.08;107237;1251;69740;-69
2022/04/19 03:03:19;;;;;;;12.30;7.50;;;;;;;-2.14;69.36;100761.27;107408;1250;72417;-68
2022/04/19 03:05:49;;;;;;;12.10;7.40;;;;;;;-2.12;69.27;100759.02;107394;1250;61840;-67
2022/04/19 03:08:19;;;;;;;14.20;7.60;;;;;;;-2.09;69.19;100760.00;107377;1251;61639;-67
2022/04/19 03:10:49;;;;;;;12.90;7.50;;;;;;;-2.09;69.20;100762.23;107555;1249;71698;-66
2022/04/19 03:13:18;;;;;;;13.80;7.90;;;;;;;-2.08;69.51;100760.48;107511;1250;69923;-66
2022/04/19 03:15:47;;;;;;;13.50;8.40;;;;;;;-2.13;69.88;100758.34;107558;1250;68700;-67
2022/04/19 03:18:17;;;;;;;16.90;8.10;;;;;;;-2.13;69.91;100759.73;107280;1250;71276;-68
2022/04/19 03:20:47;;;;;;;22.40;12.50;;;;;;;-2.11;70.12;100762.77;107388;1251;58790;-66
2022/04/19 03:29:04;;;;;;;17.50;9.00;;;;;;;-2.23;70.18;100772.04;107318;1250;69356;-65
2022/04/19 03:31:34;;;;;;;15.70;8.20;;;;;;;-2.23;70.39;100775.10;107394;1250;68114;-67
2022/04/19 03:34:05;;;;;;;21.40;10.80;;;;;;;-2.17;70.43;100774.99;107106;1251;74827;-67
2022/04/19 03:36:35;;;;;;;17.50;7.80;;;;;;;-2.20;70.44;100780.49;107049;1252;59398;-67
2022/04/19 03:39:04;;;;;;;14.80;8.90;;;;;;;-2.28;71.37;100782.53;106964;1252;59944;-66
2022/04/19 03:41:33;;;;;;;16.30;8.80;;;;;;;-2.23;71.06;100786.55;107164;1251;71204;-66
2022/04/19 03:44:02;;;;;;;13.50;8.80;;;;;;;-2.19;70.44;100786.64;106747;1254;69723;-66
2022/04/19 03:46:31;;;;;;;18.30;11.60;;;;;;;-2.13;70.37;100793.70;107115;1253;67892;-65
2022/04/19 03:49:00;;;;;;;21.00;12.20;;;;;;;-2.14;70.14;100791.84;107731;1245;74500;-66
2022/04/19 03:51:29;;;;;;;24.30;11.30;;;;;;;-2.20;70.12;100794.16;107577;1247;60140;-65
2022/04/19 03:54:00;;;;;;;28.70;12.40;;;;;;;-2.20;68.34;100794.85;107593;1247;58905;-65
2022/04/19 03:56:29;;;;;;;21.10;10.70;;;;;;;-2.26;69.62;100797.52;107558;1247;73047;-67
2022/04/19 03:58:58;;;;;;;16.80;9.70;;;;;;;-2.21;70.15;100798.45;107469;1247;72346;-67
2022/04/19 04:01:27;;;;;;;16.80;10.80;;;;;;;-2.08;70.41;100802.30;107621;1247;70965;-67
2022/04/19 04:03:56;;;;;;;19.90;10.00;;;;;;;-2.02;70.37;100802.35;107793;1244;71673;-65
2022/04/19 04:06:26;;;;;;;18.20;10.20;;;;;;;-1.90;69.06;100806.21;107614;1246;60738;-72
2022/04/19 04:08:55;;;;;;;20.80;11.00;;;;;;;-1.90;67.76;100801.78;108064;1244;605102;-71
2022/04/19 04:11:24;;;;;;;17.80;9.30;;;;;;;-1.97;66.47;100808.06;107695;1244;73394;-70
2022/04/19 04:13:59;;;;;;;18.20;8.80;;;;;;;-2.14;66.49;100806.85;107603;1244;71595;-71
2022/04/19 04:16:28;;;;;;;19.10;8.80;;;;;;;-2.20;67.11;100812.23;107456;1247;68703;-70
2022/04/19 04:18:57;;;;;;;18.50;9.20;;;;;;;-2.27;66.60;100811.17;107647;1244;72294;-69
2022/04/19 04:21:26;;;;;;;18.10;8.60;;;;;;;-2.38;66.76;100819.55;107810;1247;61321;-71
2022/04/19 04:23:55;;;;;;;17.70;8.90;;;;;;;-2.52;66.97;100812.98;107622;1245;59988;-75
2022/04/19 04:26:24;;;;;;;17.20;8.20;;;;;;;-2.62;67.10;100811.44;107407;1247;71951;-68
2022/04/19 04:28:53;;;;;;;17.10;7.20;;;;;;;-2.71;67.32;100814.30;107752;1247;70561;-69
2022/04/19 04:31:22;;;;;;;12.50;6.80;;;;;;;-2.78;67.67;100818.02;107665;1247;70399;-68
2022/04/19 04:33:50;;;;;;;14.70;7.80;;;;;;;-2.86;68.14;100818.81;107671;1247;74651;-70
2022/04/19 04:36:20;;;;;;;28.00;11.20;;;;;;;-2.88;68.12;100822.26;107849;1247;61535;-70
2022/04/19 04:38:49;;;;;;;19.70;9.60;;;;;;;-2.84;68.24;100819.46;107389;1247;59435;-72
2022/04/19 04:41:27;;;;;;;19.40;8.60;;;;;;;-2.70;68.27;100818.38;107631;1247;70881;-71
2022/04/19 04:43:56;;;;;;;23.40;11.00;;;;;;;-2.52;67.73;100818.95;107350;1247;70863;-69
2022/04/19 04:52:01;;;;;;;18.60;10.20;;;;;;;-2.04;66.16;100820.99;107570;1245;59579;-68
2022/04/19 04:54:29;;;;;;;25.00;9.70;;;;;;;-1.95;65.50;100823.05;107809;1244;60883;-70
2022/04/19 04:56:58;;;;;;;17.30;9.00;;;;;;;-1.90;64.95;100821.74;107568;1244;73906;-71
2022/04/19 04:59:29;;;;;;;20.20;8.50;;;;;;;-1.89;64.99;100818.80;107689;1244;71297;-77
2022/04/19 05:01:58;;;;;;;18.20;9.30;;;;;;;-1.84;65.03;100820.78;107670;1247;69665;-73
2022/04/19 05:04:28;;;;;;;17.20;9.10;;;;;;;-1.80;65.02;100822.60;107862;1247;73912;-74
2022/04/19 05:06:57;;;;;;;21.60;8.70;;;;;;;-1.77;64.93;100825.59;107809;1244;58834;-75
2022/04/19 05:09:27;;;;;;;18.50;9.30;;;;;;;-1.71;64.59;100822.24;107992;1244;59042;-71
2022/04/19 05:11:57;;;;;;;20.00;11.00;;;;;;;-1.65;64.39;100828.25;107579;1247;71797;-71
2022/04/19 05:14:28;;;;;;;17.10;8.40;;;;;;;-1.55;64.32;100829.42;108191;1244;73045;-75
2022/04/19 05:16:57;;;;;;;21.30;9.80;;;;;;;-1.43;64.05;100832.42;108129;1244;70642;-75
2022/04/19 05:19:26;;;;;;;20.30;10.30;;;;;;;-1.32;64.02;100831.17;107928;1247;74309;-78
2022/04/19 05:21:56;;;;;;;22.60;10.50;;;;;;;-1.18;64.61;100826.77;107571;1247;59489;-69
2022/04/19 05:24:25;;;;;;;17.90;10.60;;;;;;;-1.03;64.28;100827.27;107494;1247;59398;-74
2022/04/19 05:26:55;;;;;;;20.50;9.40;;;;;;;-0.88;63.66;100830.17;107638;1244;73969;-73
2022/04/19 05:29:24;;;;;;;17.40;9.10;;;;;;;-0.69;63.27;100831.29;107445;1247;71758;-72
2022/04/19 05:31:53;;;;;;;19.80;11.30;;;;;;;-0.50;62.97;100829.27;107738;1244;68685;-72
2022/04/19 05:34:22;;;;;;;24.50;11.40;;;;;;;-0.34;62.74;100832.96;107704;1247;70924;-72
2022/04/19 05:36:51;;;;;;;22.20;11.10;;;;;;;-0.22;62.04;100832.48;107567;1247;58905;-72
2022/04/19 05:39:20;;;;;;;18.90;10.30;;;;;;;-0.09;61.35;100826.86;107620;1245;61183;-73
2022/04/19 05:41:49;;;;;;;19.60;9.50;;;;;;;0.00;61.61;100823.18;107573;1244;73551;-72
2022/04/19 05:44:18;;;;;;;19.70;11.70;;;;;;;0.17;61.93;100829.58;107665;1247;70720;-71
2022/04/19 05:46:47;;;;;;;28.50;16.10;;;;;;;0.34;61.81;100826.02;107761;1244;69737;-76
2022/04/19 05:49:17;;;;;;;21.60;11.70;;;;;;;0.58;61.28;100824.64;107795;1245;73765;-75
2022/04/19 05:51:49;;;;;;;22.50;12.00;;;;;;;0.71;60.67;100816.02;107942;1244;60394;-72
2022/04/19 05:54:18;;;;;;;20.40;10.40;;;;;;;0.97;59.93;100826.20;107927;1246;59238;-71
2022/04/19 05:56:47;;;;;;;18.60;10.50;;;;;;;1.14;59.18;100825.51;107805;1245;72362;-73
2022/04/19 05:59:16;;;;;;;18.80;9.20;;;;;;;1.26;58.86;100820.13;107831;1245;71273;-73
2022/04/19 06:07:25;;;;;;;17.50;9.30;;;;;;;1.67;57.05;100825.17;107669;1244;59561;-75
2022/04/19 06:09:58;;;;;;;20.00;9.50;;;;;;;1.72;57.32;100821.73;107789;1244;60834;-79
2022/04/19 06:12:27;;;;;;;26.70;12.70;;;;;;;1.88;57.19;100823.91;107785;1247;71534;-76
2022/04/19 06:14:56;;;;;;;16.80;10.10;;;;;;;2.03;56.36;100826.30;107559;1247;70523;-76
2022/04/19 06:17:32;;;;;;;19.80;9.90;;;;;;;2.29;55.58;100826.61;107826;1247;70614;-80
2022/04/19 06:20:07;;;;;;;26.50;12.30;;;;;;;2.44;54.63;100829.48;107852;1247;73713;-74
2022/04/19 06:22:36;;;;;;;17.00;10.10;;;;;;;2.49;55.58;100827.23;107532;1247;60408;-74
2022/04/19 06:25:10;;;;;;;21.40;9.90;;;;;;;2.65;54.93;100827.14;107442;1247;61070;-74
2022/04/19 06:27:39;;;;;;;23.60;10.90;;;;;;;2.73;55.17;100825.82;107537;1244;74131;-75
2022/04/19 06:30:10;;;;;;;15.60;7.90;;;;;;;2.94;54.73;100823.63;107861;1244;72693;-75
2022/04/19 06:32:40;;;;;;;23.40;10.70;;;;;;;3.07;54.30;100829.31;107738;1244;70148;-76
2022/04/19 06:35:10;;;;;;;23.10;12.40;;;;;;;3.19;54.18;100830.71;107787;1247;73400;-74
2022/04/19 06:37:39;;;;;;;19.90;10.40;;;;;;;3.32;54.26;100828.83;107663;1247;58916;-75
2022/04/19 06:40:12;;;;;;;20.90;12.10;;;;;;;3.45;54.06;100825.36;107915;1244;60043;-74
2022/04/19 06:42:42;;;;;;;21.40;11.20;;;;;;;3.63;52.86;100825.84;107863;1244;73514;-73
2022/04/19 06:45:21;;;;;;;19.80;10.60;;;;;;;3.70;52.95;100831.23;108112;1244;72278;-72
2022/04/19 06:48:01;;;;;;;23.20;11.60;;;;;;;3.81;52.64;100828.71;108087;1246;68285;-73
2022/04/19 06:50:34;;;;;;;21.40;10.70;;;;;;;3.92;52.67;100827.02;108175;1244;73847;-74
2022/04/19 06:53:10;;;;;;;14.30;8.30;;;;;;;4.06;52.31;100828.14;108267;1244;60384;-74
2022/04/19 06:55:59;;;;;;;26.90;11.20;;;;;;;4.26;51.57;100826.75;108161;1247;59757;-74
2022/04/19 06:58:28;;;;;;;17.20;8.90;;;;;;;4.41;51.17;100825.04;107993;1247;71107;-73
2022/04/19 07:00:57;;;;;;;15.70;10.20;;;;;;;4.52;51.24;100832.32;107644;1247;70825;-75
2022/04/19 07:03:26;;;;;;;18.90;11.00;;;;;;;4.67;50.84;100833.00;107555;1247;68281;-76
2022/04/19 07:06:17;;;;;;;20.60;9.50;;;;;;;4.87;50.24;100829.51;107534;1247;71976;-75
2022/04/19 07:08:47;;;;;;;16.00;8.70;;;;;;;4.98;50.03;100829.33;107428;1246;58887;-75
2022/04/19 07:11:16;;;;;;;15.90;8.90;;;;;;;5.05;49.60;100814.13;107615;1245;61154;-75
2022/04/19 07:13:45;;;;;;;19.20;10.30;;;;;;;5.23;49.53;100826.22;107648;1244;74036;-71
2022/04/19 07:17:00;;;;;;;16.40;7.30;;;;;;;5.34;49.89;100818.09;107527;1245;70404;-73
2022/04/19 07:26:37;;;;;;;19.60;10.50;;;;;;;5.54;49.00;100819.71;107651;1244;69747;-74
2022/04/19 07:28:04;;;;;;;15.60;9.20;;;;;;;5.85;47.42;100808.80;107643;1247;61578;-73
2022/04/19 07:30:43;;;;;;;16.60;9.10;;;;;;;5.97;47.91;100809.95;107493;1247;72158;-74
2022/04/19 07:33:12;;;;;;;16.10;8.20;;;;;;;6.11;48.17;100803.52;107427;1245;72995;-73
2022/04/19 07:35:44;;;;;;;16.10;8.90;;;;;;;6.26;47.08;100802.55;107806;1244;71167;-76
2022/04/19 07:38:14;;;;;;;12.50;7.90;;;;;;;6.37;46.49;100797.84;107549;1244;73360;-76
2022/04/19 07:41:37;;;;;;;11.50;7.30;;;;;;;6.58;45.66;100801.38;107610;1247;60290;-75
2022/04/19 07:44:08;;;;;;;13.40;7.70;;;;;;;6.61;45.50;100801.18;107678;1244;58977;-73
2022/04/19 07:46:37;;;;;;;11.40;6.60;;;;;;;6.60;45.16;100796.39;107455;1247;70874;-76
2022/04/19 07:49:06;;;;;;;12.40;6.60;;;;;;;6.72;45.07;100788.49;107801;1244;71520;-75
2022/04/19 07:51:35;;;;;;;10.60;5.30;;;;;;;6.92;45.02;100790.85;107484;1247;68589;-75
2022/04/19 07:54:05;;;;;;;11.60;6.30;;;;;;;7.12;44.37;100785.90;107694;1245;73900;-74
2022/04/19 07:56:34;;;;;;;12.00;6.40;;;;;;;7.26;43.84;100786.86;107660;1245;60409;-74
2022/04/19 07:59:03;;;;;;;10.60;6.80;;;;;;;7.36;44.47;100778.63;107634;1245;60919;-76
2022/04/19 08:01:35;;;;;;;8.30;5.10;;;;;;;7.53;44.16;100779.20;107833;1245;73444;-76
2022/04/19 08:04:04;;;;;;;6.10;3.30;;;;;;;7.61;42.22;100781.14;107760;1244;73042;-75
2022/04/19 08:06:33;;;;;;;8.00;4.10;;;;;;;7.57;40.75;100779.66;107746;1247;67560;-74
2022/04/19 08:09:03;;;;;;;7.30;3.60;;;;;;;7.62;39.96;100779.39;107989;1244;72111;-75
2022/04/19 08:11:31;;;;;;;6.00;3.60;;;;;;;7.68;40.02;100770.34;107590;1247;59817;-73
2022/04/19 08:14:00;;;;;;;5.60;3.80;;;;;;;7.98;39.18;100769.06;107359;1246;59693;-72
2022/04/19 08:16:32;;;;;;;6.50;3.50;;;;;;;8.06;37.78;100769.66;107563;1244;72817;-73
2022/04/19 08:19:01;;;;;;;24.30;17.20;;;;;;;8.25;39.02;100764.27;107474;1244;71691;-73
2022/04/19 08:21:30;;;;;;;7.00;3.90;;;;;;;8.43;38.26;100764.40;107559;1245;71083;-74
2022/04/19 08:23:59;;;;;;;6.30;3.20;;;;;;;8.59;38.59;100767.05;107625;1247;72470;-72
2022/04/19 08:26:30;;;;;;;4.70;3.00;;;;;;;8.61;37.61;100763.28;107616;1244;60518;-74
2022/04/19 08:28:59;;;;;;;6.90;3.70;;;;;;;8.40;37.15;100757.83;107571;1244;60910;-73
2022/04/19 08:31:28;;;;;;;8.10;3.50;;;;;;;8.27;36.08;100755.00;107683;1247;70922;-71
2022/04/19 08:33:57;;;;;;;6.10;3.60;;;;;;;8.51;36.59;100748.14;107639;1244;71939;-74
2022/04/19 08:36:26;;;;;;;5.50;3.10;;;;;;;8.67;36.77;100747.13;107671;1247;69778;-74
2022/04/19 08:38:55;;;;;;;7.10;3.90;;;;;;;8.79;36.27;100745.45;107723;1247;71672;-75
2022/04/19 08:41:25;;;;;;;5.70;3.40;;;;;;;8.99;37.11;100737.35;107784;1244;59324;-73
2022/04/19 08:43:55;;;;;;;5.60;3.50;;;;;;;9.10;35.99;100735.32;107549;1244;62196;-74
2022/04/19 08:46:26;;;;;;;8.30;3.00;;;;;;;9.06;35.47;100730.18;107789;1245;73137;-74
2022/04/19 08:49:01;;;;;;;7.10;3.30;;;;;;;9.17;34.97;100730.16;107705;1244;71816;-74
2022/04/19 08:51:35;;;;;;;5.90;3.40;;;;;;;9.17;34.62;100726.64;107840;1244;70250;-76
2022/04/19 08:59:43;;;;;;;6.30;3.80;;;;;;;9.30;35.51;100706.48;107886;1244;61630;-73
2022/04/19 09:02:21;;;;;;;5.20;3.40;;;;;;;9.39;35.06;100711.31;107977;1244;71342;-73
2022/04/19 09:04:52;;;;;;;5.10;3.30;;;;;;;9.41;35.77;100706.77;107762;1244;72223;-72
2022/04/19 09:07:36;;;;;;;4.90;3.60;;;;;;;9.68;35.29;100703.05;107763;1245;70741;-75
2022/04/19 09:10:07;;;;;;;6.30;3.60;;;;;;;9.76;35.00;100706.00;107946;1244;73860;-73
2022/04/19 09:12:35;;;;;;;7.50;3.70;;;;;;;9.69;34.79;100700.23;107829;1244;60954;-72
2022/04/19 09:15:08;;;;;;;4.40;3.20;;;;;;;10.08;34.95;100695.95;107791;1244;61602;-72
2022/04/19 09:17:43;;;;;;;5.70;3.20;;;;;;;10.29;34.18;100696.52;107908;1244;73046;-73
2022/04/19 09:20:18;;;;;;;6.90;3.80;;;;;;;10.40;33.22;100690.73;108029;1244;70694;-74
2022/04/19 09:22:59;;;;;;;5.40;3.30;;;;;;;10.45;33.90;100678.52;107738;1247;70937;-73
2022/04/19 09:25:29;;;;;;;6.90;3.20;;;;;;;10.54;33.31;100674.71;107748;1244;74421;-73
2022/04/19 09:28:00;;;;;;;4.90;3.30;;;;;;;10.46;33.33;100662.44;108019;1244;59788;-71
2022/04/19 09:30:29;;;;;;;6.00;3.10;;;;;;;10.64;32.71;100676.78;107678;1244;61793;-75
2022/04/19 09:33:10;;;;;;;5.40;2.90;;;;;;;10.71;33.20;100664.98;107871;1244;71829;-72
2022/04/19 09:35:53;;;;;;;5.70;2.90;;;;;;;10.56;33.49;100680.52;108315;1245;69541;-74
2022/04/19 09:38:46;;;;;;;6.40;3.70;;;;;;;10.52;32.88;100678.86;107768;1244;70539;-74
2022/04/19 09:41:29;;;;;;;;;;;;;;;10.49;33.02;100682.27;107834;1244;71574;-73
2022/04/19 09:44:12;;;;;;;5.70;3.50;;;;;;;10.51;32.43;100680.34;107769;1244;61312;-72
2022/04/19 09:47:12;;;;;;;5.10;3.20;;;;;;;10.66;32.69;100676.15;107884;1244;60772;-73
2022/04/19 09:49:47;;;;;;;6.90;3.10;;;;;;;10.68;32.39;100673.52;107707;1246;72279;-76
2022/04/19 09:52:43;;;;;;;7.00;3.30;;;;;;;10.69;32.17;100668.38;107963;1247;72272;-72
2022/04/19 09:55:18;;;;;;;5.10;3.00;;;;;;;10.71;32.37;100670.57;107779;1247;70094;-75
2022/04/19 09:57:48;;;;;;;6.70;3.30;;;;;;;10.76;32.74;100671.91;107568;1247;74408;-73
2022/04/19 10:00:19;;;;;;;6.50;3.70;;;;;;;10.79;32.97;100671.14;107858;1244;60979;-71
2022/04/19 10:08:24;;;;;;;5.70;3.00;;;;;;;11.03;32.41;100659.06;107764;1247;70401;-73
2022/04/19 10:10:56;;;;;;;5.00;3.50;;;;;;;11.39;32.17;100658.96;108065;1244;69162;-78
2022/04/19 10:13:26;;;;;;;5.80;3.70;;;;;;;10.77;31.83;100663.41;108139;1244;71954;-73
2022/04/19 10:15:55;;;;;;;4.80;2.80;;;;;;;11.10;32.41;100663.61;107845;1244;60345;-73
2022/04/19 10:18:24;;;;;;;7.50;3.40;;;;;;;11.47;32.01;100657.84;107705;1245;61179;-75
2022/04/19 10:21:01;;;;;;;5.90;3.40;;;;;;;11.50;31.85;100664.23;107745;1246;73290;-74
2022/04/19 10:23:42;;;;;;;5.80;3.70;;;;;;;11.60;31.61;100662.73;107729;1247;71002;-73
2022/04/19 10:26:24;;;;;;;6.30;3.70;;;;;;;11.83;31.45;100658.17;108224;1244;68156;-75
2022/04/19 10:28:58;;;;;;;5.50;3.60;;;;;;;12.20;31.32;100648.83;108026;1246;72146;-74
2022/04/19 10:31:35;;;;;;;5.60;3.70;;;;;;;12.44;31.30;100647.02;108154;1244;59760;-76
2022/04/19 10:34:05;;;;;;;7.50;4.00;;;;;;;12.47;31.22;100655.05;108249;1242;59690;-74
2022/04/19 10:36:36;;;;;;;7.60;3.60;;;;;;;12.56;30.88;100648.52;107939;1244;73955;-76
2022/04/19 10:39:14;;;;;;;6.90;4.20;;;;;;;12.41;30.14;100649.19;107625;1244;72914;-74
2022/04/19 10:41:55;;;;;;;7.90;3.60;;;;;;;12.44;29.90;100646.88;107784;1244;68576;-74
2022/04/19 10:44:31;;;;;;;5.50;3.50;;;;;;;12.71;29.69;100646.59;107611;1247;71935;-74
2022/04/19 10:47:02;;;;;;;5.50;3.20;;;;;;;12.83;28.96;100643.49;107847;1244;60622;-73
2022/04/19 10:49:46;;;;;;;7.10;4.00;;;;;;;12.90;29.24;100649.95;107758;1246;61013;-73
2022/04/19 10:52:39;;;;;;;7.40;4.40;;;;;;;12.34;29.68;100645.05;107802;1246;72109;-72
2022/04/19 10:55:17;;;;;;;7.60;4.10;;;;;;;12.35;29.32;100641.16;107845;1244;71468;-74
2022/04/19 10:58:15;;;;;;;7.10;3.50;;;;;;;12.30;29.30;100641.73;107822;1246;71138;-75
2022/04/19 11:00:54;;;;;;;6.50;4.00;;;;;;;12.46;29.66;100639.16;108081;1244;73680;-78
2022/04/19 11:03:49;;;;;;;6.50;3.80;;;;;;;13.14;28.43;100639.39;107737;1246;60356;-75
2022/04/19 11:06:37;;;;;;;7.80;3.30;;;;;;;12.73;27.84;100644.66;107803;1247;59719;-75
2022/04/19 11:09:13;;;;;;;4.90;3.80;;;;;;;12.82;27.89;100643.05;107926;1244;72743;-74
2022/04/19 11:11:56;;;;;;;5.20;3.50;;;;;;;12.55;28.07;100646.33;107990;1244;72560;-75
2022/04/19 11:14:41;;;;;;;7.00;3.50;;;;;;;12.77;27.67;100636.17;107951;1244;69738;-74
2022/04/19 11:17:28;;;;;;;6.10;3.60;;;;;;;12.30;28.03;100637.86;108044;1244;72317;-75
2022/04/19 11:20:08;;;;;;;6.90;3.50;;;;;;;13.00;28.23;100639.65;107935;1244;59599;-73
2022/04/19 11:22:57;;;;;;;5.40;2.90;;;;;;;13.36;26.93;100636.08;107920;1244;59883;-73
2022/04/19 11:25:43;;;;;;;5.30;2.90;;;;;;;13.33;25.99;100635.12;107752;1244;73462;-73
2022/04/19 11:28:11;;;;;;;7.60;3.10;;;;;;;13.11;26.34;100639.45;107793;1246;72694;-73
2022/04/19 11:31:10;;;;;;;8.30;3.70;;;;;;;13.02;26.56;100630.05;108027;1244;68607;-74
2022/04/19 11:33:40;;;;;;;5.30;3.50;;;;;;;13.22;27.09;100625.05;107783;1244;72965;-74
2022/04/19 11:36:16;;;;;;;6.80;3.30;;;;;;;13.44;27.17;100627.56;107719;1247;59014;-73
2022/04/19 11:38:50;;;;;;;5.70;3.30;;;;;;;13.64;25.71;100619.39;108067;1244;59704;-75
2022/04/19 11:46:45;;;;;;;6.10;3.30;;;;;;;13.76;26.20;100606.73;107907;1242;70199;-72
2022/04/19 11:49:16;;;;;;;6.40;3.20;;;;;;;13.89;25.90;100604.20;107736;1244;74388;-75
2022/04/19 11:51:52;;;;;;;5.10;3.20;;;;;;;14.07;25.96;100598.91;107709;1244;60020;-73
2022/04/19 11:54:32;;;;;;;5.50;3.20;;;;;;;14.17;25.44;100591.80;107659;1244;58946;-72
2022/04/19 11:57:08;;;;;;;5.50;3.30;;;;;;;14.22;25.51;100590.44;107706;1247;70845;-76
2022/04/19 11:59:41;;;;;;;5.30;3.40;;;;;;;14.26;25.20;100596.59;107683;1245;72272;-76
2022/04/19 12:02:20;;;;;;;4.70;3.20;;;;;;;14.00;25.52;100588.41;107940;1246;69607;-73
2022/04/19 12:04:54;;;;;;;6.20;3.50;;;;;;;14.17;25.20;100587.06;107906;1244;74281;-78
2022/04/19 12:07:26;;;;;;;6.90;3.20;;;;;;;14.19;25.55;100592.83;107824;1247;60257;-74
2022/04/19 12:10:01;;;;;;;5.00;3.50;;;;;;;14.17;25.15;100592.94;107787;1247;60859;-74
2022/04/19 12:12:30;;;;;;;5.10;3.10;;;;;;;14.21;25.43;100586.33;107882;1244;73547;-75
2022/04/19 12:15:05;;;;;;;7.00;3.30;;;;;;;14.38;25.42;100586.40;107652;1244;72266;-78
2022/04/19 12:17:44;;;;;;;5.70;3.90;;;;;;;14.35;25.54;100580.34;107837;1247;68250;-74
2022/04/19 12:20:14;;;;;;;7.50;3.40;;;;;;;14.49;25.44;100573.60;107730;1247;71911;-71
2022/04/19 12:22:48;;;;;;;5.30;3.70;;;;;;;14.45;25.47;100571.77;107826;1247;60266;-73
2022/04/19 12:25:25;;;;;;;5.90;3.40;;;;;;;14.32;25.19;100574.95;107756;1247;60937;-74